Time;durP1;ratioP1;P1;durP2;ratioP2;P2;SDS_P1;SDS_P2;PMS_P1;PMS_P2;Temp;Humidity;BMP_temperature;BMP_pressure;BME280_temperature;BME280_humidity;BME280_pressure;Samples;Min_cycle;Max_cycle;Signal;HPM_P1;HPM_P2
2021/10/17 00:01:08;;;;;;;5.80;3.95;;;;;;;9.47;81.30;102170.63;4961564;28;20249;-91
2021/10/17 00:03:33;;;;;;;6.80;3.97;;;;;;;9.49;82.32;102169.72;4945185;28;20430;-90
2021/10/17 00:05:58;;;;;;;16.65;4.00;;;;;;;9.48;80.90;102162.78;4945671;28;20038;-90
2021/10/17 00:08:24;;;;;;;12.38;4.32;;;;;;;9.48;81.06;102164.50;4944997;28;20034;-91
2021/10/17 00:10:50;;;;;;;10.98;4.05;;;;;;;9.48;81.22;102162.78;4961596;28;20058;-90
2021/10/17 00:13:15;;;;;;;9.10;4.28;;;;;;;9.49;80.87;102155.78;4944800;28;20081;-90
2021/10/17 00:15:41;;;;;;;12.15;4.43;;;;;;;9.50;81.45;102158.38;4961041;28;20039;-90
2021/10/17 00:18:06;;;;;;;9.63;4.43;;;;;;;9.50;81.19;102149.69;4944685;28;20042;-90
2021/10/17 00:20:32;;;;;;;9.48;4.57;;;;;;;9.49;81.03;102153.16;4944547;28;20572;-90
2021/10/17 00:22:57;;;;;;;11.15;4.28;;;;;;;9.49;80.45;102161.00;4961416;28;20076;-91
2021/10/17 00:25:23;;;;;;;7.53;4.10;;;;;;;9.51;81.29;102157.47;4944634;28;20022;-90
2021/10/17 00:27:49;;;;;;;10.23;4.07;;;;;;;9.52;81.29;102146.13;4929581;28;20031;-91
2021/10/17 00:30:14;;;;;;;12.32;4.57;;;;;;;9.52;80.19;102143.53;4961072;28;20364;-91
2021/10/17 00:32:40;;;;;;;11.05;4.28;;;;;;;9.54;80.54;102146.97;4960077;28;20327;-91
2021/10/17 00:35:06;;;;;;;9.50;4.50;;;;;;;9.55;80.77;102145.22;4943869;28;20093;-91
2021/10/17 00:37:32;;;;;;;8.88;4.22;;;;;;;9.58;80.91;102150.41;4943932;28;20129;-91
2021/10/17 00:39:58;;;;;;;9.30;4.53;;;;;;;9.58;80.56;102155.63;4945176;28;20053;-91
2021/10/17 00:42:23;;;;;;;14.30;4.60;;;;;;;9.57;79.97;102148.69;4928465;28;20035;-91
2021/10/17 00:44:56;;;;;;;12.30;4.63;;;;;;;9.57;79.82;102164.38;4944859;28;20197;-90
2021/10/17 00:47:22;;;;;;;19.17;4.90;;;;;;;9.58;80.19;102156.50;4928519;28;20027;-91
2021/10/17 00:49:48;;;;;;;10.55;4.35;;;;;;;9.59;80.96;102155.63;4944818;28;20034;-91
2021/10/17 00:52:14;;;;;;;11.35;4.53;;;;;;;9.58;80.34;102158.25;4944802;28;20073;-91
2021/10/17 00:54:41;;;;;;;9.88;4.55;;;;;;;9.59;80.83;102150.38;4928477;28;20039;-91
2021/10/17 00:57:07;;;;;;;8.82;4.13;;;;;;;9.57;80.01;102149.56;4935864;29;20042;-91
2021/10/17 00:59:32;;;;;;;11.50;4.72;;;;;;;9.59;80.23;102149.53;4941035;29;20031;-91
2021/10/17 01:04:44;;;;;;;11.07;5.00;;;;;;;9.60;80.09;102144.28;4956832;28;20066;-91
2021/10/17 01:07:10;;;;;;;9.20;5.22;;;;;;;9.62;80.49;102144.22;4926183;29;20038;-91
2021/10/17 01:09:35;;;;;;;8.70;4.53;;;;;;;9.61;80.15;102143.38;4941043;29;20341;-91
2021/10/17 01:12:01;;;;;;;7.60;4.07;;;;;;;9.63;80.65;102143.34;4941118;29;20330;-91
2021/10/17 01:14:26;;;;;;;13.45;5.00;;;;;;;9.62;80.68;102136.38;4940600;29;20338;-91
2021/10/17 01:16:52;;;;;;;11.85;4.20;;;;;;;9.64;80.81;102136.38;4925570;29;20035;-91
2021/10/17 01:19:18;;;;;;;9.07;3.95;;;;;;;9.65;80.80;102135.50;4940881;29;20027;-91
2021/10/17 01:21:43;;;;;;;15.95;4.85;;;;;;;9.65;80.82;102131.13;4925425;29;20042;-91
2021/10/17 01:24:09;;;;;;;12.77;4.88;;;;;;;9.66;81.41;102129.34;4925074;29;20031;-91
2021/10/17 01:26:34;;;;;;;10.45;5.10;;;;;;;9.62;80.10;102125.91;4924972;29;20027;-91
2021/10/17 01:29:00;;;;;;;11.07;4.80;;;;;;;9.62;79.63;102123.31;4925113;29;20035;-91
2021/10/17 01:31:52;;;;;;;9.32;4.32;;;;;;;9.64;80.08;102124.16;4924527;29;20396;-91
2021/10/17 01:34:18;;;;;;;8.63;4.15;;;;;;;9.65;80.46;102119.78;4923677;29;20051;-91
2021/10/17 01:36:44;;;;;;;9.65;4.53;;;;;;;9.66;80.25;102126.72;4925176;29;20142;-91
2021/10/17 01:39:11;;;;;;;8.75;4.57;;;;;;;9.68;80.56;102127.56;4940568;29;20039;-90
2021/10/17 01:41:36;;;;;;;8.65;4.57;;;;;;;9.67;80.63;102123.25;4940365;29;20285;-90
2021/10/17 01:44:02;;;;;;;9.68;4.80;;;;;;;9.68;80.43;102131.06;4924935;29;20362;-90
2021/10/17 01:46:27;;;;;;;11.77;4.30;;;;;;;9.68;80.38;102131.06;4940327;29;20142;-90
2021/10/17 01:48:53;;;;;;;11.60;6.30;;;;;;;9.68;79.91;102125.84;4958136;29;20046;-90
2021/10/17 01:51:18;;;;;;;10.52;4.53;;;;;;;9.67;79.75;102124.09;4923915;29;20066;-90
2021/10/17 01:53:45;;;;;;;14.65;4.78;;;;;;;9.69;80.21;102121.47;4924702;29;20078;-90
2021/10/17 01:56:10;;;;;;;14.23;4.22;;;;;;;9.69;80.14;102127.56;4941812;28;20039;-90
2021/10/17 01:58:35;;;;;;;11.13;4.00;;;;;;;9.70;80.87;102118.81;4943500;28;20788;-90
2021/10/17 02:01:01;;;;;;;11.65;4.57;;;;;;;9.69;81.27;102111.00;4943303;28;20058;-90
2021/10/17 02:03:27;;;;;;;12.90;4.18;;;;;;;9.68;80.60;102109.25;4943271;28;20041;-90
2021/10/17 02:05:52;;;;;;;13.15;4.75;;;;;;;9.70;80.45;102113.59;4927790;28;20031;-90
2021/10/17 02:08:17;;;;;;;8.80;4.43;;;;;;;9.71;80.71;102114.44;4943310;28;20239;-90
2021/10/17 02:10:43;;;;;;;11.00;4.55;;;;;;;9.70;80.56;102110.97;4943121;28;20089;-90
2021/10/17 02:13:08;;;;;;;9.73;4.32;;;;;;;9.71;80.66;102114.44;4943484;28;20043;-89
2021/10/17 02:15:34;;;;;;;13.65;4.40;;;;;;;9.71;80.71;102110.06;4943537;28;20035;-89
2021/10/17 02:17:59;;;;;;;11.23;4.72;;;;;;;9.68;79.87;102118.00;4959573;28;20354;-89
2021/10/17 02:20:25;;;;;;;12.63;4.68;;;;;;;9.70;79.66;102110.97;4959440;28;20046;-89
2021/10/17 02:22:50;;;;;;;12.18;4.55;;;;;;;9.70;79.87;102104.91;4943985;28;20041;-89
2021/10/17 02:25:15;;;;;;;12.02;5.25;;;;;;;9.71;80.39;102107.47;4959508;28;20065;-89
2021/10/17 02:27:41;;;;;;;18.05;4.97;;;;;;;9.70;80.41;102102.28;4959583;28;20233;-89
2021/10/17 02:30:07;;;;;;;14.60;4.50;;;;;;;9.69;79.83;102111.00;4943635;28;20030;-89
2021/10/17 02:32:34;;;;;;;12.65;4.53;;;;;;;9.67;79.21;102113.63;4959407;28;20366;-89
2021/10/17 02:35:00;;;;;;;18.67;4.53;;;;;;;9.68;79.37;102111.88;4943933;28;20335;-89
2021/10/17 02:37:28;;;;;;;10.40;4.40;;;;;;;9.68;79.84;102112.75;4927393;28;20097;-89
2021/10/17 02:39:53;;;;;;;13.55;5.00;;;;;;;9.70;80.10;102118.81;4959679;28;20057;-89
2021/10/17 02:42:18;;;;;;;12.50;4.30;;;;;;;9.70;79.91;102110.13;4960631;28;20046;-89
2021/10/17 02:44:44;;;;;;;17.92;5.03;;;;;;;9.68;78.95;102111.88;4931332;28;20058;-89
2021/10/17 02:47:10;;;;;;;11.90;4.53;;;;;;;9.68;79.37;102104.03;4962926;28;20038;-89
2021/10/17 02:49:35;;;;;;;12.90;4.75;;;;;;;9.68;79.03;102101.41;4947242;28;20042;-89
2021/10/17 02:52:01;;;;;;;18.25;4.40;;;;;;;9.67;79.23;102108.41;4962894;28;20034;-89
2021/10/17 02:54:26;;;;;;;6.05;3.85;;;;;;;9.68;78.80;102111.88;4947133;28;20318;-88
2021/10/17 02:56:52;;;;;;;6.43;4.40;;;;;;;9.68;79.10;102101.41;4940286;29;20039;-89
2021/10/17 02:59:17;;;;;;;9.25;5.18;;;;;;;9.70;80.24;102095.28;4927881;29;20053;-89
2021/10/17 03:01:43;;;;;;;7.25;4.53;;;;;;;9.70;80.67;102095.28;4959103;29;20269;-89
2021/10/17 03:04:08;;;;;;;10.07;4.55;;;;;;;9.70;80.73;102083.97;4928198;29;20063;-89
2021/10/17 03:06:34;;;;;;;7.18;4.57;;;;;;;9.71;80.79;102085.69;4943330;29;20288;-89
2021/10/17 03:08:59;;;;;;;11.05;4.95;;;;;;;9.69;79.72;102077.00;4927897;29;20098;-88
2021/10/17 03:11:25;;;;;;;11.40;4.82;;;;;;;9.69;79.86;102075.22;4926865;29;20030;-89
2021/10/17 03:13:50;;;;;;;12.25;5.07;;;;;;;9.69;80.78;102074.38;4926501;29;20035;-89
2021/10/17 03:16:15;;;;;;;15.98;5.30;;;;;;;9.69;80.59;102071.75;4943368;29;20424;-89
2021/10/17 03:18:41;;;;;;;15.25;5.38;;;;;;;9.67;78.64;102068.31;4927342;29;20255;-89
2021/10/17 03:21:06;;;;;;;18.25;6.00;;;;;;;9.66;79.05;102070.06;4927454;29;20050;-89
2021/10/17 03:23:32;;;;;;;12.48;5.57;;;;;;;9.69;79.87;102077.00;4927153;29;20031;-89
2021/10/17 03:25:57;;;;;;;12.95;6.20;;;;;;;9.68;79.94;102076.13;4943283;29;20047;-89
2021/10/17 03:28:23;;;;;;;18.98;5.97;;;;;;;9.69;79.37;102075.22;4942757;29;20047;-89
2021/10/17 03:30:50;;;;;;;12.02;5.82;;;;;;;9.67;79.60;102069.16;4943249;29;20074;-89
2021/10/17 03:33:16;;;;;;;12.70;6.18;;;;;;;9.67;79.13;102071.78;4927631;29;20035;-89
2021/10/17 03:35:42;;;;;;;15.70;6.57;;;;;;;9.67;79.87;102073.53;4942535;29;20039;-89
2021/10/17 03:38:07;;;;;;;18.10;7.10;;;;;;;9.68;78.74;102068.28;4927041;29;20067;-89
2021/10/17 03:40:33;;;;;;;15.63;7.47;;;;;;;9.68;79.35;102070.91;4926768;29;20031;-89
2021/10/17 03:42:58;;;;;;;19.08;7.57;;;;;;;9.69;79.83;102074.38;4942766;29;20053;-89
2021/10/17 03:45:23;;;;;;;21.70;7.38;;;;;;;9.69;80.51;102070.00;4942014;29;20037;-89
2021/10/17 03:47:49;;;;;;;12.82;6.85;;;;;;;9.69;79.86;102067.38;4942806;29;20346;-89
2021/10/17 03:50:15;;;;;;;19.25;7.65;;;;;;;9.70;80.46;102066.50;4927176;29;20050;-89
2021/10/17 03:52:40;;;;;;;14.30;7.80;;;;;;;9.69;79.66;102075.22;4942343;29;20358;-89
2021/10/17 03:55:06;;;;;;;19.27;9.20;;;;;;;9.69;79.00;102072.63;4926524;29;20039;-89
2021/10/17 03:57:31;;;;;;;14.38;6.70;;;;;;;9.68;79.22;102068.28;4954524;28;20077;-89
2021/10/17 03:59:57;;;;;;;19.85;8.18;;;;;;;9.71;80.45;102062.97;4946167;28;20042;-89
2021/10/17 04:02:22;;;;;;;17.98;8.15;;;;;;;9.71;80.10;102056.91;4960955;28;20066;-89
2021/10/17 04:04:48;;;;;;;16.98;7.93;;;;;;;9.71;80.18;102060.38;4961936;28;20324;-89
2021/10/17 04:07:13;;;;;;;20.30;7.85;;;;;;;9.72;80.18;102071.72;4945588;28;20046;-89
2021/10/17 04:09:38;;;;;;;18.98;7.97;;;;;;;9.70;79.86;102060.44;4961444;28;20038;-89
2021/10/17 04:12:04;;;;;;;19.15;8.07;;;;;;;9.70;79.86;102057.81;4945564;28;20030;-89
2021/10/17 04:14:30;;;;;;;26.17;8.90;;;;;;;9.69;80.01;102063.91;4945251;28;20046;-89
2021/10/17 04:16:55;;;;;;;19.70;8.05;;;;;;;9.67;79.92;102053.47;4961504;28;20034;-89
2021/10/17 04:19:21;;;;;;;19.80;7.97;;;;;;;9.70;80.28;102060.44;4945409;28;20047;-89
2021/10/17 04:21:46;;;;;;;19.85;7.70;;;;;;;9.68;79.84;102057.81;4961777;28;20234;-89
2021/10/17 04:24:11;;;;;;;19.15;7.20;;;;;;;9.68;79.68;102059.56;4961515;28;20037;-89
2021/10/17 04:26:37;;;;;;;18.15;8.10;;;;;;;9.70;79.98;102055.19;4945442;28;20062;-89
2021/10/17 04:29:03;;;;;;;17.17;6.75;;;;;;;9.70;79.83;102053.44;4961339;28;20049;-89
2021/10/17 04:31:28;;;;;;;12.63;6.60;;;;;;;9.67;79.29;102048.25;4929370;28;20034;-89
2021/10/17 04:33:54;;;;;;;16.90;7.88;;;;;;;9.68;79.91;102055.22;4929555;28;20315;-89
2021/10/17 04:36:19;;;;;;;18.25;7.07;;;;;;;9.69;79.63;102054.31;4961102;28;20043;-89
2021/10/17 04:38:45;;;;;;;17.27;7.97;;;;;;;9.69;79.52;102051.69;4945211;28;20027;-89
2021/10/17 04:41:12;;;;;;;13.73;7.40;;;;;;;9.70;80.15;102052.56;4929198;28;20266;-89
2021/10/17 04:43:37;;;;;;;15.50;7.40;;;;;;;9.69;79.73;102054.31;4944772;28;20042;-89
2021/10/17 04:46:03;;;;;;;15.88;6.72;;;;;;;9.68;79.63;102052.59;4944957;28;20035;-89
2021/10/17 04:48:29;;;;;;;13.38;6.88;;;;;;;9.69;80.47;102054.31;4928714;28;20077;-89
2021/10/17 04:50:54;;;;;;;21.58;7.47;;;;;;;9.69;80.33;102049.06;4960564;28;20359;-89
2021/10/17 04:53:19;;;;;;;18.15;6.75;;;;;;;9.69;80.12;102059.53;4959524;28;20041;-89
2021/10/17 04:55:45;;;;;;;17.63;6.30;;;;;;;9.69;80.13;102061.31;4960198;28;20266;-89
2021/10/17 04:58:10;;;;;;;14.57;6.75;;;;;;;9.69;79.92;102061.31;4943491;29;20046;-89
2021/10/17 05:00:36;;;;;;;10.55;5.97;;;;;;;9.68;80.18;102060.44;4925455;29;20069;-89
2021/10/17 05:03:01;;;;;;;16.30;6.57;;;;;;;9.69;80.09;102064.78;4925707;29;20035;-89
2021/10/17 05:05:26;;;;;;;15.90;5.68;;;;;;;9.69;80.00;102064.78;4925235;29;20043;-89
2021/10/17 05:07:52;;;;;;;16.15;6.03;;;;;;;9.69;79.98;102061.31;4941684;29;20285;-89
2021/10/17 05:10:17;;;;;;;13.07;6.40;;;;;;;9.67;79.81;102068.31;4925525;29;20046;-89
2021/10/17 05:12:43;;;;;;;22.23;6.18;;;;;;;9.68;80.32;102068.28;4940983;29;20362;-89
2021/10/17 05:15:08;;;;;;;17.50;6.95;;;;;;;9.67;79.69;102060.47;4925253;29;20035;-89
2021/10/17 05:17:34;;;;;;;12.85;6.20;;;;;;;9.69;79.60;102064.78;4925022;29;20350;-89
2021/10/17 05:19:59;;;;;;;11.52;6.13;;;;;;;9.71;80.57;102059.50;4941212;29;20047;-89
2021/10/17 05:22:24;;;;;;;12.43;6.63;;;;;;;9.70;79.93;102053.44;4940960;29;20270;-89
2021/10/17 05:24:50;;;;;;;14.45;5.72;;;;;;;9.70;80.38;102063.88;4925703;29;20038;-89
2021/10/17 05:27:15;;;;;;;11.13;6.10;;;;;;;9.69;79.82;102058.69;4925120;29;20039;-89
2021/10/17 05:29:41;;;;;;;13.55;6.32;;;;;;;9.71;80.11;102065.59;4936835;29;20372;-89
2021/10/17 05:32:06;;;;;;;14.30;6.32;;;;;;;9.72;80.12;102071.72;4928113;29;20173;-89
2021/10/17 05:34:32;;;;;;;14.40;6.35;;;;;;;9.73;80.28;102065.59;4921725;29;20042;-89
2021/10/17 05:36:59;;;;;;;14.88;6.00;;;;;;;9.73;80.08;102062.97;4890562;29;20035;-89
2021/10/17 05:39:25;;;;;;;14.48;6.35;;;;;;;9.74;80.08;102064.69;4890244;29;20115;-89
2021/10/17 05:41:50;;;;;;;10.65;5.90;;;;;;;9.74;79.61;102072.56;4906490;29;20219;-89
2021/10/17 05:44:16;;;;;;;17.23;5.90;;;;;;;9.76;79.52;102065.53;4906117;29;20032;-89
2021/10/17 05:46:41;;;;;;;12.65;5.78;;;;;;;9.76;80.59;102066.38;4906096;29;20221;-89
2021/10/17 05:49:06;;;;;;;15.45;5.95;;;;;;;9.76;80.19;102073.38;4921688;29;20035;-89
2021/10/17 05:51:32;;;;;;;9.07;5.30;;;;;;;9.76;79.81;102066.38;4906192;29;20095;-89
2021/10/17 05:53:58;;;;;;;10.93;5.35;;;;;;;9.77;80.59;102064.66;4921752;29;20035;-90
2021/10/17 05:56:23;;;;;;;9.60;5.65;;;;;;;9.78;79.66;102069.84;4911543;28;20369;-89
2021/10/17 05:58:49;;;;;;;9.70;5.20;;;;;;;9.79;80.20;102078.56;4943191;28;20035;-89
2021/10/17 06:01:14;;;;;;;15.45;5.60;;;;;;;9.77;79.70;102073.38;4959062;28;20062;-88
2021/10/17 06:03:40;;;;;;;12.73;5.75;;;;;;;9.78;78.91;102076.84;4959670;28;20030;-89
2021/10/17 06:06:06;;;;;;;7.40;5.20;;;;;;;9.78;78.55;102082.06;4943958;28;20027;-89
2021/10/17 06:08:31;;;;;;;9.90;5.53;;;;;;;9.81;79.52;102084.63;4928190;28;20357;-89
2021/10/17 06:10:57;;;;;;;14.00;5.75;;;;;;;9.80;79.76;102082.91;4944042;28;20048;-89
2021/10/17 06:13:22;;;;;;;9.93;5.47;;;;;;;9.80;79.26;102090.75;4927714;28;20335;-89
2021/10/17 06:15:48;;;;;;;11.38;5.45;;;;;;;9.82;79.53;102096.81;4944364;28;20042;-88
2021/10/17 06:18:13;;;;;;;13.50;5.28;;;;;;;9.83;79.29;102095.06;4963492;28;20093;-89
2021/10/17 06:20:39;;;;;;;14.95;5.47;;;;;;;9.82;79.11;102094.19;4947344;28;20224;-89
2021/10/17 06:23:04;;;;;;;15.52;5.13;;;;;;;9.84;80.10;102091.56;4947558;28;20110;-89
2021/10/17 06:25:30;;;;;;;15.23;5.80;;;;;;;9.84;79.51;102096.78;4947108;28;20093;-89
2021/10/17 06:27:59;;;;;;;7.90;4.93;;;;;;;9.86;80.31;102097.63;4962709;28;20038;-89
2021/10/17 06:30:24;;;;;;;11.48;5.07;;;;;;;9.86;79.85;102100.22;4979768;28;20081;-88
2021/10/17 06:32:50;;;;;;;12.18;5.50;;;;;;;9.86;79.36;102110.69;4971424;28;20324;-88
2021/10/17 06:35:16;;;;;;;14.02;5.25;;;;;;;9.86;79.40;102111.59;4925639;29;20327;-90
2021/10/17 06:37:41;;;;;;;9.50;5.28;;;;;;;9.86;79.76;102108.09;4933684;29;20036;-88
2021/10/17 06:40:07;;;;;;;11.45;5.82;;;;;;;9.86;79.66;102106.34;4935079;29;20432;-88
2021/10/17 06:42:33;;;;;;;11.27;5.90;;;;;;;9.87;79.43;102108.06;4926764;29;20322;-89
2021/10/17 06:44:58;;;;;;;11.52;5.57;;;;;;;9.90;79.82;102113.25;4960699;28;20038;-89
2021/10/17 06:47:23;;;;;;;10.93;5.45;;;;;;;9.91;80.87;102111.50;4927770;29;20038;-88
2021/10/17 06:49:49;;;;;;;13.27;5.22;;;;;;;9.91;80.00;102119.34;4936958;29;20045;-89
2021/10/17 06:52:14;;;;;;;13.18;5.72;;;;;;;9.91;79.49;102114.09;4931133;29;20042;-89
2021/10/17 06:54:40;;;;;;;13.60;6.25;;;;;;;9.92;79.81;102110.63;4953509;29;20042;-89
2021/10/17 06:57:05;;;;;;;10.40;4.90;;;;;;;9.92;79.99;102114.09;4942624;28;20031;-88
2021/10/17 06:59:31;;;;;;;15.25;5.88;;;;;;;9.93;79.96;102107.97;4960906;29;20320;-88
2021/10/17 07:01:56;;;;;;;14.38;6.03;;;;;;;9.93;79.38;102110.59;4960913;29;20066;-89
2021/10/17 07:04:22;;;;;;;14.90;5.22;;;;;;;9.95;79.34;102111.44;4918604;29;20035;-88
2021/10/17 07:06:47;;;;;;;17.67;4.90;;;;;;;9.94;79.36;102104.44;4934491;29;20034;-89
2021/10/17 07:09:13;;;;;;;11.13;5.20;;;;;;;9.95;79.44;102111.44;4935054;29;20047;-89
2021/10/17 07:11:38;;;;;;;12.15;5.15;;;;;;;9.97;80.27;102108.78;4927780;29;20206;-89
2021/10/17 07:14:04;;;;;;;10.85;4.95;;;;;;;9.98;80.18;102113.13;4943518;29;20046;-89
2021/10/17 07:16:29;;;;;;;11.85;5.75;;;;;;;9.98;80.16;102111.34;4926226;29;20206;-89
2021/10/17 07:18:55;;;;;;;11.90;6.13;;;;;;;9.99;80.44;102118.31;4927691;29;20031;-89
2021/10/17 07:21:20;;;;;;;13.13;5.57;;;;;;;10.01;80.56;102112.22;4959096;29;20057;-89
2021/10/17 07:23:45;;;;;;;11.50;5.55;;;;;;;10.00;80.06;102111.31;4935584;29;20237;-89
2021/10/17 07:26:11;;;;;;;12.20;6.55;;;;;;;10.02;80.17;102112.16;4909676;29;20070;-89
2021/10/17 07:28:36;;;;;;;11.93;5.97;;;;;;;10.04;80.68;102106.91;4942740;29;20234;-88
2021/10/17 07:31:02;;;;;;;10.55;5.88;;;;;;;10.04;80.46;102112.13;4932601;29;20046;-89
2021/10/17 07:33:27;;;;;;;9.07;5.50;;;;;;;10.05;80.33;102114.72;4936848;29;20036;-89
2021/10/17 07:35:53;;;;;;;17.85;5.55;;;;;;;10.05;80.41;102114.72;4926641;29;20046;-89
2021/10/17 07:38:18;;;;;;;10.85;5.95;;;;;;;10.07;79.52;102114.72;4926164;29;20043;-89
2021/10/17 07:40:43;;;;;;;15.43;5.40;;;;;;;10.08;79.71;102116.44;4939414;28;20035;-89
2021/10/17 07:43:09;;;;;;;15.07;5.38;;;;;;;10.11;80.01;102121.59;4962866;28;20398;-89
2021/10/17 07:45:34;;;;;;;11.77;5.80;;;;;;;10.11;79.01;102127.69;4943052;29;20042;-89
2021/10/17 07:48:00;;;;;;;7.72;5.30;;;;;;;10.13;79.24;102125.06;4958855;29;20375;-89
2021/10/17 07:50:25;;;;;;;10.18;5.43;;;;;;;10.14;79.49;102125.03;4932806;29;20098;-88
2021/10/17 07:52:51;;;;;;;12.32;5.53;;;;;;;10.16;79.13;102122.38;4939773;29;20059;-88
2021/10/17 07:55:16;;;;;;;16.20;5.70;;;;;;;10.18;78.89;102125.84;4942992;29;20289;-88
2021/10/17 07:57:52;;;;;;;10.23;6.13;;;;;;;10.21;79.27;102117.09;4913410;28;20144;-88
2021/10/17 08:00:22;;;;;;;11.23;6.10;;;;;;;10.23;79.05;102120.53;4906328;28;20676;-88
2021/10/17 08:02:47;;;;;;;13.63;5.68;;;;;;;10.26;80.42;102120.44;4929578;28;20426;-88
2021/10/17 08:05:13;;;;;;;9.93;5.85;;;;;;;10.26;79.42;102118.72;4933504;29;20043;-88
2021/10/17 08:07:38;;;;;;;10.10;5.38;;;;;;;10.29;79.48;102129.13;4933517;29;20275;-89
2021/10/17 08:10:05;;;;;;;10.70;5.57;;;;;;;10.31;79.79;102127.34;4910645;28;20035;-89
2021/10/17 08:12:30;;;;;;;12.82;5.93;;;;;;;10.32;79.12;102120.38;4948786;28;20318;-89
2021/10/17 08:14:55;;;;;;;9.80;5.65;;;;;;;10.35;79.80;102129.03;4974283;28;20043;-89
2021/10/17 08:17:21;;;;;;;12.73;5.80;;;;;;;10.34;78.99;102118.59;4936878;29;20054;-89
2021/10/17 08:19:46;;;;;;;9.48;5.72;;;;;;;10.36;79.15;102122.91;4928941;29;20242;-89
2021/10/17 08:22:12;;;;;;;11.32;5.90;;;;;;;10.37;78.37;102118.56;4941249;28;20081;-89
2021/10/17 08:24:37;;;;;;;11.25;6.05;;;;;;;10.40;79.83;102120.22;4941534;29;20189;-89
2021/10/17 08:27:02;;;;;;;13.32;6.03;;;;;;;10.40;79.41;102123.69;4962638;28;20054;-89
2021/10/17 08:29:28;;;;;;;9.55;5.95;;;;;;;10.44;79.90;102134.97;4932732;28;20038;-89
2021/10/17 08:31:53;;;;;;;10.27;6.18;;;;;;;10.43;78.92;102130.66;4943383;29;20039;-89
2021/10/17 08:34:18;;;;;;;12.63;6.57;;;;;;;10.46;79.26;102126.22;4939409;28;20378;-89
2021/10/17 08:36:44;;;;;;;12.02;5.78;;;;;;;10.46;78.47;102131.47;4938473;29;20206;-88
2021/10/17 08:39:09;;;;;;;14.60;5.65;;;;;;;10.49;78.16;102134.00;4907867;29;20198;-89
2021/10/17 08:41:35;;;;;;;14.70;6.00;;;;;;;10.51;77.09;102124.38;4934693;29;20039;-88
2021/10/17 08:44:01;;;;;;;12.25;6.07;;;;;;;10.54;77.60;102126.91;4939482;29;20027;-89
2021/10/17 08:46:27;;;;;;;17.80;7.57;;;;;;;10.57;78.93;102129.50;4935478;28;20045;-89
2021/10/17 08:48:54;;;;;;;13.65;6.30;;;;;;;10.60;78.50;102120.69;4920006;29;20035;-89
2021/10/17 08:51:24;;;;;;;6.30;5.22;;;;;;;10.64;78.06;102118.88;4903433;28;20027;-89
2021/10/17 08:53:50;;;;;;;8.52;5.38;;;;;;;10.64;77.89;102117.13;4920954;29;20035;-89
2021/10/17 08:56:15;;;;;;;10.02;5.05;;;;;;;10.69;78.49;102124.88;4934392;28;20079;-88
2021/10/17 09:02:18;;;;;;;11.95;5.68;;;;;;;10.72;79.15;102120.44;4889495;29;20075;-89
2021/10/17 09:08:29;;;;;;;10.32;5.70;;;;;;;10.77;78.56;102128.22;4878773;29;20062;-89
2021/10/17 09:10:55;;;;;;;10.38;5.90;;;;;;;10.80;77.58;102124.66;4923821;29;20073;-89
2021/10/17 09:13:20;;;;;;;15.27;5.72;;;;;;;10.80;76.63;102122.03;4931385;29;20050;-89
2021/10/17 09:15:45;;;;;;;13.18;7.00;;;;;;;10.84;78.26;102124.59;4927007;29;20502;-89
2021/10/17 09:18:18;;;;;;;11.88;5.43;;;;;;;10.86;78.68;102120.16;4932796;29;20032;-89
2021/10/17 09:20:47;;;;;;;7.97;5.75;;;;;;;10.88;78.82;102126.22;4902937;29;20039;-88
2021/10/17 09:23:21;;;;;;;14.43;6.93;;;;;;;10.90;78.93;102137.53;4931760;29;20122;-88
2021/10/17 09:25:47;;;;;;;10.88;5.93;;;;;;;10.88;78.44;102128.84;4945014;28;20024;-88
2021/10/17 09:28:16;;;;;;;13.27;5.50;;;;;;;10.90;77.94;102128.81;4921536;29;20046;-88
2021/10/17 09:30:42;;;;;;;10.80;5.90;;;;;;;10.92;78.63;102127.88;4936675;29;20479;-88
2021/10/17 09:33:11;;;;;;;11.68;6.38;;;;;;;10.92;78.48;102133.13;4906319;29;20035;-89
2021/10/17 09:35:38;;;;;;;12.55;6.20;;;;;;;10.93;78.50;102131.34;4942764;29;20043;-89
2021/10/17 09:38:03;;;;;;;14.40;6.15;;;;;;;10.95;79.10;102132.19;4932183;29;20047;-89
2021/10/17 09:40:29;;;;;;;10.95;6.60;;;;;;;10.97;79.76;102132.16;4940787;29;20097;-89
2021/10/17 09:43:22;;;;;;;9.20;4.82;;;;;;;10.94;78.32;102133.94;4917795;29;20034;-88
2021/10/17 09:45:48;;;;;;;11.35;6.10;;;;;;;10.96;78.52;102136.53;4923563;29;20035;-88
2021/10/17 09:48:29;;;;;;;10.38;5.10;;;;;;;10.94;78.02;102133.94;4952827;29;20032;-89
2021/10/17 09:51:05;;;;;;;12.95;5.45;;;;;;;10.97;77.31;102138.28;4944392;28;20063;-88
2021/10/17 09:53:44;;;;;;;9.93;5.32;;;;;;;10.99;76.65;102133.88;4947562;28;20067;-89
2021/10/17 09:56:10;;;;;;;9.02;5.13;;;;;;;11.02;77.69;102138.16;4940403;29;20375;-89
2021/10/17 09:58:35;;;;;;;9.90;4.78;;;;;;;11.05;77.37;102135.50;4925946;29;20049;-89
2021/10/17 10:01:01;;;;;;;9.38;5.22;;;;;;;11.11;76.64;102137.97;4942579;29;20039;-89
2021/10/17 10:03:26;;;;;;;10.48;5.15;;;;;;;11.15;76.91;102139.59;4956480;28;20293;-89
2021/10/17 10:05:56;;;;;;;9.05;4.35;;;;;;;11.19;77.29;102141.28;4932379;29;20103;-89
2021/10/17 10:08:21;;;;;;;10.48;4.65;;;;;;;11.21;77.36;102131.63;4896316;28;20026;-89
2021/10/17 10:10:50;;;;;;;7.32;4.38;;;;;;;11.29;77.05;102140.16;4953975;28;20132;-89
2021/10/17 10:13:15;;;;;;;11.35;4.63;;;;;;;11.34;76.77;102133.06;4935317;29;20035;-88
2021/10/17 10:15:42;;;;;;;7.55;4.30;;;;;;;11.39;76.11;102132.09;4906313;29;20047;-88
2021/10/17 10:18:08;;;;;;;7.68;4.78;;;;;;;11.43;75.23;102131.13;4950811;28;20039;-89
2021/10/17 10:20:33;;;;;;;8.20;4.60;;;;;;;11.46;75.29;102131.03;4951329;28;20054;-89
2021/10/17 10:22:59;;;;;;;7.10;4.68;;;;;;;11.51;74.89;102129.16;4942504;29;20074;-89
2021/10/17 10:25:24;;;;;;;6.40;4.40;;;;;;;11.53;74.60;102130.88;4935057;28;20037;-89
2021/10/17 10:27:50;;;;;;;13.88;4.63;;;;;;;11.60;75.15;102133.34;4935923;29;20043;-89
2021/10/17 10:30:27;;;;;;;5.07;4.03;;;;;;;11.63;75.61;102131.50;4939301;28;20054;-88
2021/10/17 10:33:13;;;;;;;10.90;5.00;;;;;;;11.66;74.99;102133.19;4928569;29;20042;-88
2021/10/17 10:36:03;;;;;;;10.40;4.43;;;;;;;11.65;74.50;102134.94;4936001;29;20047;-91
2021/10/17 10:38:50;;;;;;;11.52;4.93;;;;;;;11.65;74.63;102137.56;4927382;28;20077;-89
2021/10/17 10:41:19;;;;;;;8.85;4.07;;;;;;;11.64;74.46;102134.97;4965264;28;20031;-89
2021/10/17 10:43:45;;;;;;;7.13;4.28;;;;;;;11.65;74.57;102136.72;4946298;29;20126;-89
2021/10/17 10:46:10;;;;;;;6.93;4.15;;;;;;;11.66;75.07;102128.81;4930324;28;20037;-88
2021/10/17 10:48:45;;;;;;;8.65;4.82;;;;;;;11.68;75.01;102137.50;4940420;29;20067;-89
2021/10/17 10:51:11;;;;;;;8.13;3.90;;;;;;;11.70;75.43;102137.47;4953810;28;20473;-88
2021/10/17 10:53:54;;;;;;;6.60;4.15;;;;;;;11.71;75.51;102137.44;4947919;29;20038;-89
2021/10/17 10:56:37;;;;;;;8.90;4.70;;;;;;;11.70;75.58;102133.09;4963417;28;20121;-88
2021/10/17 10:59:03;;;;;;;9.40;4.35;;;;;;;11.70;75.56;102134.84;4957340;28;20035;-88
2021/10/17 11:01:54;;;;;;;7.47;3.75;;;;;;;11.71;75.47;102152.31;4916899;28;20082;-89
2021/10/17 11:04:39;;;;;;;7.65;3.80;;;;;;;11.69;75.15;102149.72;4961857;28;20043;-89
2021/10/17 11:07:20;;;;;;;11.43;4.60;;;;;;;11.67;75.53;102141.03;4958132;28;20057;-88
2021/10/17 11:09:46;;;;;;;10.25;4.00;;;;;;;11.67;75.42;102141.03;4963260;28;20440;-88
2021/10/17 11:12:31;;;;;;;9.40;4.85;;;;;;;11.64;74.73;102135.88;4960368;28;20363;-89
2021/10/17 11:15:00;;;;;;;7.30;4.13;;;;;;;11.62;75.41;102137.63;4934625;29;20334;-88
2021/10/17 11:17:25;;;;;;;8.85;4.45;;;;;;;11.61;75.25;102138.56;4922300;28;20047;-89
2021/10/17 11:19:51;;;;;;;14.85;4.20;;;;;;;11.58;75.45;102128.13;4934581;28;20035;-88
2021/10/17 11:22:16;;;;;;;10.15;4.60;;;;;;;11.59;75.16;102123.72;4931605;28;20031;-88
2021/10/17 11:24:42;;;;;;;17.02;4.53;;;;;;;11.59;75.46;102122.00;4953509;28;20027;-88
2021/10/17 11:27:09;;;;;;;11.30;4.13;;;;;;;11.59;75.88;102127.25;4961590;28;20035;-89
2021/10/17 11:29:41;;;;;;;7.10;3.85;;;;;;;11.59;75.91;102123.72;4927731;29;20094;-88
2021/10/17 11:32:08;;;;;;;14.27;4.38;;;;;;;11.58;76.36;102122.88;4930392;28;20222;-89